sensor_id;sensor_type;location;lat;lon;timestamp;pressure;altitude;pressure_sealevel;temperature;humidity
76694;BME280;69667;52.136;5.424;2023-07-09T00:00:15;101709.13;;;21.89;79.53
76694;BME280;69667;52.136;5.424;2023-07-09T00:02:43;101711.19;;;21.87;79.91
76694;BME280;69667;52.136;5.424;2023-07-09T00:05:13;101708.44;;;21.87;80.21
76694;BME280;69667;52.136;5.424;2023-07-09T00:07:41;101707.44;;;21.88;80.22
76694;BME280;69667;52.136;5.424;2023-07-09T00:10:14;101707.25;;;21.89;80.38
76694;BME280;69667;52.136;5.424;2023-07-09T00:12:41;101708.09;;;21.90;80.41
76694;BME280;69667;52.136;5.424;2023-07-09T00:15:09;101710.84;;;21.90;79.89
76694;BME280;69667;52.136;5.424;2023-07-09T00:17:36;101716.84;;;21.85;79.85
76694;BME280;69667;52.136;5.424;2023-07-09T00:20:04;101724.56;;;21.82;80.11
76694;BME280;69667;52.136;5.424;2023-07-09T00:22:31;101730.56;;;21.77;79.74
76694;BME280;69667;52.136;5.424;2023-07-09T00:24:58;101734.50;;;21.75;80.38
76694;BME280;69667;52.136;5.424;2023-07-09T00:27:28;101726.72;;;21.70;80.53
76694;BME280;69667;52.136;5.424;2023-07-09T00:29:55;101734.44;;;21.67;79.96
76694;BME280;69667;52.136;5.424;2023-07-09T00:32:22;101732.38;;;21.61;80.79
76694;BME280;69667;52.136;5.424;2023-07-09T00:34:51;101745.56;;;21.57;81.15
76694;BME280;69667;52.136;5.424;2023-07-09T00:37:21;101743.31;;;21.53;81.52
76694;BME280;69667;52.136;5.424;2023-07-09T00:39:52;101736.41;;;21.49;81.33
76694;BME280;69667;52.136;5.424;2023-07-09T00:42:20;101742.25;;;21.46;81.93
76694;BME280;69667;52.136;5.424;2023-07-09T00:44:50;101740.84;;;21.42;81.42
76694;BME280;69667;52.136;5.424;2023-07-09T00:50:11;101751.78;;;21.33;81.94
76694;BME280;69667;52.136;5.424;2023-07-09T00:52:49;101751.41;;;21.28;81.82
76694;BME280;69667;52.136;5.424;2023-07-09T00:55:19;101758.94;;;21.26;82.23
76694;BME280;69667;52.136;5.424;2023-07-09T00:57:49;101758.28;;;21.24;82.31
76694;BME280;69667;52.136;5.424;2023-07-09T01:00:28;101761.03;;;21.24;82.55
76694;BME280;69667;52.136;5.424;2023-07-09T01:02:56;101758.72;;;21.20;82.48
76694;BME280;69667;52.136;5.424;2023-07-09T01:05:24;101759.22;;;21.15;82.40
76694;BME280;69667;52.136;5.424;2023-07-09T01:07:52;101760.56;;;21.11;82.94
76694;BME280;69667;52.136;5.424;2023-07-09T01:10:19;101761.59;;;21.10;82.82
76694;BME280;69667;52.136;5.424;2023-07-09T01:12:47;101758.16;;;21.08;82.83
76694;BME280;69667;52.136;5.424;2023-07-09T01:15:14;101754.00;;;21.04;81.90
76694;BME280;69667;52.136;5.424;2023-07-09T01:17:42;101751.72;;;21.00;82.96
76694;BME280;69667;52.136;5.424;2023-07-09T01:20:16;101752.94;;;20.97;83.23
76694;BME280;69667;52.136;5.424;2023-07-09T01:22:49;101756.63;;;20.96;83.04
76694;BME280;69667;52.136;5.424;2023-07-09T01:25:16;101745.81;;;20.95;83.27
76694;BME280;69667;52.136;5.424;2023-07-09T01:27:47;101745.28;;;20.91;83.32
76694;BME280;69667;52.136;5.424;2023-07-09T01:30:24;101750.94;;;20.90;83.42
76694;BME280;69667;52.136;5.424;2023-07-09T01:32:56;101750.38;;;20.86;83.58
76694;BME280;69667;52.136;5.424;2023-07-09T01:35:24;101754.50;;;20.82;83.63
76694;BME280;69667;52.136;5.424;2023-07-09T01:37:52;101747.59;;;20.78;83.65
76694;BME280;69667;52.136;5.424;2023-07-09T01:40:21;101748.94;;;20.74;84.32
76694;BME280;69667;52.136;5.424;2023-07-09T01:42:59;101752.84;;;20.72;84.01
76694;BME280;69667;52.136;5.424;2023-07-09T01:45:27;101745.09;;;20.67;84.14
76694;BME280;69667;52.136;5.424;2023-07-09T01:47:54;101755.69;;;20.62;84.32
76694;BME280;69667;52.136;5.424;2023-07-09T01:50:25;101763.38;;;20.59;84.26
76694;BME280;69667;52.136;5.424;2023-07-09T01:52:56;101761.81;;;20.56;84.90
76694;BME280;69667;52.136;5.424;2023-07-09T01:55:23;101764.00;;;20.53;84.54
76694;BME280;69667;52.136;5.424;2023-07-09T01:57:52;101765.16;;;20.50;84.45
76694;BME280;69667;52.136;5.424;2023-07-09T02:00:22;101768.22;;;20.47;84.54
76694;BME280;69667;52.136;5.424;2023-07-09T02:02:49;101767.53;;;20.45;85.15
76694;BME280;69667;52.136;5.424;2023-07-09T02:05:19;101768.56;;;20.44;85.46
76694;BME280;69667;52.136;5.424;2023-07-09T02:07:46;101768.88;;;20.41;85.30
76694;BME280;69667;52.136;5.424;2023-07-09T02:10:16;101763.38;;;20.41;85.54
76694;BME280;69667;52.136;5.424;2023-07-09T02:12:43;101762.34;;;20.42;85.42
76694;BME280;69667;52.136;5.424;2023-07-09T02:15:11;101764.38;;;20.40;85.20
76694;BME280;69667;52.136;5.424;2023-07-09T02:17:38;101764.53;;;20.39;85.63
76694;BME280;69667;52.136;5.424;2023-07-09T02:20:09;101769.16;;;20.38;85.71
76694;BME280;69667;52.136;5.424;2023-07-09T02:22:38;101767.75;;;20.34;85.58
76694;BME280;69667;52.136;5.424;2023-07-09T02:25:06;101760.53;;;20.33;85.87
76694;BME280;69667;52.136;5.424;2023-07-09T02:27:37;101757.22;;;20.30;85.82
76694;BME280;69667;52.136;5.424;2023-07-09T02:30:18;101764.94;;;20.26;85.83
76694;BME280;69667;52.136;5.424;2023-07-09T02:32:51;101758.91;;;20.23;86.08
76694;BME280;69667;52.136;5.424;2023-07-09T02:35:26;101761.94;;;20.20;86.33
76694;BME280;69667;52.136;5.424;2023-07-09T02:37:55;101753.03;;;20.18;86.06
76694;BME280;69667;52.136;5.424;2023-07-09T02:40:22;101755.91;;;20.16;85.92
76694;BME280;69667;52.136;5.424;2023-07-09T02:42:49;101755.31;;;20.12;86.36
76694;BME280;69667;52.136;5.424;2023-07-09T02:45:20;101761.09;;;20.09;86.31
76694;BME280;69667;52.136;5.424;2023-07-09T02:48:11;101762.28;;;20.07;86.27
76694;BME280;69667;52.136;5.424;2023-07-09T02:50:44;101757.13;;;20.04;86.50
76694;BME280;69667;52.136;5.424;2023-07-09T02:53:12;101753.66;;;20.02;86.89
76694;BME280;69667;52.136;5.424;2023-07-09T02:55:39;101762.19;;;19.99;86.93
76694;BME280;69667;52.136;5.424;2023-07-09T02:58:08;101758.56;;;19.98;87.30
76694;BME280;69667;52.136;5.424;2023-07-09T03:00:35;101760.59;;;19.96;87.22
76694;BME280;69667;52.136;5.424;2023-07-09T03:03:02;101762.50;;;19.96;86.93
76694;BME280;69667;52.136;5.424;2023-07-09T03:05:29;101761.78;;;19.94;86.77
76694;BME280;69667;52.136;5.424;2023-07-09T03:07:56;101768.44;;;19.91;87.12
76694;BME280;69667;52.136;5.424;2023-07-09T03:10:23;101763.97;;;19.90;87.47
76694;BME280;69667;52.136;5.424;2023-07-09T03:12:49;101765.00;;;19.89;87.04
76694;BME280;69667;52.136;5.424;2023-07-09T03:15:16;101767.88;;;19.88;87.50
76694;BME280;69667;52.136;5.424;2023-07-09T03:17:43;101762.38;;;19.88;87.83
76694;BME280;69667;52.136;5.424;2023-07-09T03:20:11;101774.22;;;19.88;87.89
76694;BME280;69667;52.136;5.424;2023-07-09T03:22:38;101774.38;;;19.87;87.50
76694;BME280;69667;52.136;5.424;2023-07-09T03:25:05;101765.28;;;19.86;87.57
76694;BME280;69667;52.136;5.424;2023-07-09T03:27:33;101767.34;;;19.84;87.92
76694;BME280;69667;52.136;5.424;2023-07-09T03:30:00;101773.66;;;19.85;87.31
76694;BME280;69667;52.136;5.424;2023-07-09T03:32:27;101776.56;;;19.83;87.60
76694;BME280;69667;52.136;5.424;2023-07-09T03:34:54;101780.31;;;19.82;88.29
76694;BME280;69667;52.136;5.424;2023-07-09T03:37:22;101784.06;;;19.81;88.12
76694;BME280;69667;52.136;5.424;2023-07-09T03:39:49;101780.63;;;19.79;87.69
76694;BME280;69667;52.136;5.424;2023-07-09T03:42:17;101777.75;;;19.81;88.17
76694;BME280;69667;52.136;5.424;2023-07-09T03:44:46;101779.44;;;19.82;88.04
76694;BME280;69667;52.136;5.424;2023-07-09T03:47:14;101776.41;;;19.85;88.00
76694;BME280;69667;52.136;5.424;2023-07-09T03:49:42;101769.91;;;19.86;87.89
76694;BME280;69667;52.136;5.424;2023-07-09T03:52:09;101783.31;;;19.89;87.80
76694;BME280;69667;52.136;5.424;2023-07-09T03:54:36;101777.69;;;19.90;87.99
76694;BME280;69667;52.136;5.424;2023-07-09T03:57:02;101778.25;;;19.94;87.99
76694;BME280;69667;52.136;5.424;2023-07-09T03:59:29;101777.91;;;19.97;87.93
76694;BME280;69667;52.136;5.424;2023-07-09T04:01:55;101786.88;;;19.99;87.57
76694;BME280;69667;52.136;5.424;2023-07-09T04:04:22;101789.44;;;20.00;87.54
76694;BME280;69667;52.136;5.424;2023-07-09T04:06:49;101785.53;;;20.03;87.95
76694;BME280;69667;52.136;5.424;2023-07-09T04:09:16;101785.94;;;20.08;87.68
76694;BME280;69667;52.136;5.424;2023-07-09T04:11:42;101782.03;;;20.10;86.73
76694;BME280;69667;52.136;5.424;2023-07-09T04:14:09;101788.06;;;20.14;87.50
76694;BME280;69667;52.136;5.424;2023-07-09T04:16:35;101791.41;;;20.18;87.09
76694;BME280;69667;52.136;5.424;2023-07-09T04:19:02;101787.31;;;20.22;87.05
76694;BME280;69667;52.136;5.424;2023-07-09T04:21:29;101786.00;;;20.26;86.84
76694;BME280;69667;52.136;5.424;2023-07-09T04:23:55;101782.78;;;20.30;86.75
76694;BME280;69667;52.136;5.424;2023-07-09T04:26:22;101789.53;;;20.36;86.60
76694;BME280;69667;52.136;5.424;2023-07-09T04:28:49;101788.06;;;20.41;86.07
76694;BME280;69667;52.136;5.424;2023-07-09T04:31:16;101794.63;;;20.48;86.43
76694;BME280;69667;52.136;5.424;2023-07-09T04:33:43;101792.13;;;20.55;86.26
76694;BME280;69667;52.136;5.424;2023-07-09T04:36:09;101787.03;;;20.60;86.35
76694;BME280;69667;52.136;5.424;2023-07-09T04:38:39;101789.88;;;20.68;85.87
76694;BME280;69667;52.136;5.424;2023-07-09T04:41:06;101789.94;;;20.76;85.71
76694;BME280;69667;52.136;5.424;2023-07-09T04:43:33;101787.44;;;20.82;85.10
76694;BME280;69667;52.136;5.424;2023-07-09T04:45:59;101789.53;;;20.88;84.66
76694;BME280;69667;52.136;5.424;2023-07-09T04:48:26;101786.16;;;20.94;84.54
76694;BME280;69667;52.136;5.424;2023-07-09T04:50:53;101789.88;;;21.03;84.59
76694;BME280;69667;52.136;5.424;2023-07-09T04:53:19;101791.47;;;21.13;84.20
76694;BME280;69667;52.136;5.424;2023-07-09T04:55:46;101798.75;;;21.22;84.18
76694;BME280;69667;52.136;5.424;2023-07-09T04:58:13;101793.00;;;21.33;83.84
76694;BME280;69667;52.136;5.424;2023-07-09T05:00:39;101786.53;;;21.43;83.75
76694;BME280;69667;52.136;5.424;2023-07-09T05:03:06;101781.78;;;21.53;83.06
76694;BME280;69667;52.136;5.424;2023-07-09T05:05:32;101787.00;;;21.64;82.92
76694;BME280;69667;52.136;5.424;2023-07-09T05:07:59;101776.75;;;21.74;82.54
76694;BME280;69667;52.136;5.424;2023-07-09T05:10:26;101771.13;;;21.83;82.15
76694;BME280;69667;52.136;5.424;2023-07-09T05:12:54;101771.56;;;21.96;81.54
76694;BME280;69667;52.136;5.424;2023-07-09T05:15:22;101780.19;;;22.09;81.23
76694;BME280;69667;52.136;5.424;2023-07-09T05:17:49;101770.75;;;22.20;81.01
76694;BME280;69667;52.136;5.424;2023-07-09T05:20:16;101780.59;;;22.30;80.83
76694;BME280;69667;52.136;5.424;2023-07-09T05:22:42;101773.56;;;22.44;80.66
76694;BME280;69667;52.136;5.424;2023-07-09T05:25:09;101777.75;;;22.56;79.78
76694;BME280;69667;52.136;5.424;2023-07-09T05:27:36;101771.22;;;22.65;80.14
76694;BME280;69667;52.136;5.424;2023-07-09T05:30:03;101776.91;;;22.80;79.58
76694;BME280;69667;52.136;5.424;2023-07-09T05:32:31;101775.53;;;22.92;78.76
76694;BME280;69667;52.136;5.424;2023-07-09T05:34:57;101773.66;;;23.08;78.82
76694;BME280;69667;52.136;5.424;2023-07-09T05:37:24;101776.19;;;23.34;78.03
76694;BME280;69667;52.136;5.424;2023-07-09T05:39:51;101773.00;;;24.46;74.88
76694;BME280;69667;52.136;5.424;2023-07-09T05:42:17;101766.56;;;26.24;68.24
76694;BME280;69667;52.136;5.424;2023-07-09T05:44:44;101770.97;;;26.96;65.14
76694;BME280;69667;52.136;5.424;2023-07-09T05:47:10;101763.50;;;27.73;61.88
76694;BME280;69667;52.136;5.424;2023-07-09T05:49:38;101764.19;;;28.82;57.45
76694;BME280;69667;52.136;5.424;2023-07-09T05:52:05;101771.25;;;29.50;55.82
76694;BME280;69667;52.136;5.424;2023-07-09T05:54:32;101773.81;;;29.51;54.08
76694;BME280;69667;52.136;5.424;2023-07-09T05:56:58;101784.91;;;29.64;54.80
76694;BME280;69667;52.136;5.424;2023-07-09T05:59:25;101777.78;;;30.01;52.44
76694;BME280;69667;52.136;5.424;2023-07-09T06:01:51;101777.78;;;30.01;52.99
76694;BME280;69667;52.136;5.424;2023-07-09T06:04:19;101783.13;;;30.09;51.07
76694;BME280;69667;52.136;5.424;2023-07-09T06:06:46;101777.97;;;30.06;49.68
76694;BME280;69667;52.136;5.424;2023-07-09T06:09:12;101782.84;;;30.30;49.39
76694;BME280;69667;52.136;5.424;2023-07-09T06:11:39;101781.56;;;30.26;49.36
76694;BME280;69667;52.136;5.424;2023-07-09T06:14:05;101791.22;;;30.17;50.02
76694;BME280;69667;52.136;5.424;2023-07-09T06:16:32;101798.34;;;30.07;50.37
76694;BME280;69667;52.136;5.424;2023-07-09T06:18:59;101786.53;;;30.62;49.18
76694;BME280;69667;52.136;5.424;2023-07-09T06:21:25;101790.94;;;30.82;47.62
76694;BME280;69667;52.136;5.424;2023-07-09T06:23:52;101794.31;;;30.91;46.99
76694;BME280;69667;52.136;5.424;2023-07-09T06:26:19;101788.88;;;31.03;45.94
76694;BME280;69667;52.136;5.424;2023-07-09T06:28:45;101785.94;;;31.47;46.35
76694;BME280;69667;52.136;5.424;2023-07-09T06:31:12;101785.72;;;32.09;44.63
76694;BME280;69667;52.136;5.424;2023-07-09T06:33:39;101784.94;;;32.68;44.43
76694;BME280;69667;52.136;5.424;2023-07-09T06:36:05;101797.28;;;33.19;44.43
76694;BME280;69667;52.136;5.424;2023-07-09T06:38:32;101789.28;;;33.34;43.39
76694;BME280;69667;52.136;5.424;2023-07-09T06:40:59;101789.38;;;33.16;43.67
76694;BME280;69667;52.136;5.424;2023-07-09T06:43:26;101796.19;;;33.20;42.95
76694;BME280;69667;52.136;5.424;2023-07-09T06:45:57;101794.91;;;33.69;45.27
76694;BME280;69667;52.136;5.424;2023-07-09T06:48:26;101790.56;;;34.36;41.67
76694;BME280;69667;52.136;5.424;2023-07-09T06:50:53;101797.22;;;34.86;42.71
76694;BME280;69667;52.136;5.424;2023-07-09T06:53:21;101798.31;;;35.13;39.70
76694;BME280;69667;52.136;5.424;2023-07-09T06:55:49;101800.72;;;35.54;40.20
76694;BME280;69667;52.136;5.424;2023-07-09T06:58:17;101793.72;;;35.90;37.54
76694;BME280;69667;52.136;5.424;2023-07-09T07:00:43;101789.72;;;36.29;37.51
76694;BME280;69667;52.136;5.424;2023-07-09T07:03:11;101790.41;;;36.58;38.11
76694;BME280;69667;52.136;5.424;2023-07-09T07:05:43;101793.00;;;36.64;36.87
76694;BME280;69667;52.136;5.424;2023-07-09T07:08:09;101795.50;;;36.61;37.46
76694;BME280;69667;52.136;5.424;2023-07-09T07:10:37;101789.56;;;36.84;37.33
76694;BME280;69667;52.136;5.424;2023-07-09T07:13:07;101792.72;;;37.19;35.51
76694;BME280;69667;52.136;5.424;2023-07-09T07:15:37;101797.28;;;37.20;36.09
76694;BME280;69667;52.136;5.424;2023-07-09T07:18:04;101785.66;;;37.43;37.25
76694;BME280;69667;52.136;5.424;2023-07-09T07:20:31;101790.31;;;37.64;37.29
76694;BME280;69667;52.136;5.424;2023-07-09T07:22:58;101787.00;;;37.72;36.82
76694;BME280;69667;52.136;5.424;2023-07-09T07:25:25;101789.97;;;37.97;35.92
76694;BME280;69667;52.136;5.424;2023-07-09T07:27:52;101785.19;;;37.98;35.81
76694;BME280;69667;52.136;5.424;2023-07-09T07:30:20;101778.53;;;37.72;36.52
76694;BME280;69667;52.136;5.424;2023-07-09T07:32:52;101786.25;;;37.82;36.84
76694;BME280;69667;52.136;5.424;2023-07-09T07:35:19;101783.16;;;38.35;36.46
76694;BME280;69667;52.136;5.424;2023-07-09T07:37:46;101787.22;;;38.69;34.03
76694;BME280;69667;52.136;5.424;2023-07-09T07:40:13;101784.91;;;38.56;35.64
76694;BME280;69667;52.136;5.424;2023-07-09T07:42:39;101788.28;;;38.53;33.09
76694;BME280;69667;52.136;5.424;2023-07-09T07:45:06;101789.44;;;38.57;35.31
76694;BME280;69667;52.136;5.424;2023-07-09T07:47:34;101792.63;;;38.86;33.87
76694;BME280;69667;52.136;5.424;2023-07-09T07:50:04;101785.56;;;38.83;35.73
76694;BME280;69667;52.136;5.424;2023-07-09T07:52:31;101782.81;;;39.03;33.17
76694;BME280;69667;52.136;5.424;2023-07-09T07:54:57;101782.81;;;39.29;34.99
76694;BME280;69667;52.136;5.424;2023-07-09T07:57:24;101782.53;;;39.20;34.68
76694;BME280;69667;52.136;5.424;2023-07-09T07:59:52;101775.19;;;39.34;35.19
76694;BME280;69667;52.136;5.424;2023-07-09T08:02:18;101781.09;;;39.33;33.51
76694;BME280;69667;52.136;5.424;2023-07-09T08:04:45;101776.31;;;39.28;32.74
76694;BME280;69667;52.136;5.424;2023-07-09T08:07:12;101791.81;;;39.00;33.16
76694;BME280;69667;52.136;5.424;2023-07-09T08:09:38;101783.31;;;38.80;34.41
76694;BME280;69667;52.136;5.424;2023-07-09T08:12:06;101783.88;;;38.77;33.43
76694;BME280;69667;52.136;5.424;2023-07-09T08:14:42;101780.78;;;38.94;32.52
76694;BME280;69667;52.136;5.424;2023-07-09T08:17:10;101784.94;;;38.61;35.77
76694;BME280;69667;52.136;5.424;2023-07-09T08:19:52;101786.94;;;38.71;35.98
76694;BME280;69667;52.136;5.424;2023-07-09T08:22:20;101784.69;;;38.78;31.85
76694;BME280;69667;52.136;5.424;2023-07-09T08:24:51;101779.03;;;38.68;33.51
76694;BME280;69667;52.136;5.424;2023-07-09T08:27:18;101774.81;;;38.65;37.41
76694;BME280;69667;52.136;5.424;2023-07-09T08:29:46;101773.84;;;38.40;34.13
76694;BME280;69667;52.136;5.424;2023-07-09T08:32:13;101775.66;;;38.09;38.32
76694;BME280;69667;52.136;5.424;2023-07-09T08:34:40;101779.91;;;38.12;34.33
76694;BME280;69667;52.136;5.424;2023-07-09T08:37:27;101786.50;;;37.80;36.08
76694;BME280;69667;52.136;5.424;2023-07-09T08:39:54;101779.53;;;37.93;34.61
76694;BME280;69667;52.136;5.424;2023-07-09T08:42:31;101779.84;;;38.01;35.13
76694;BME280;69667;52.136;5.424;2023-07-09T08:48:11;101773.09;;;38.08;37.37
76694;BME280;69667;52.136;5.424;2023-07-09T08:50:43;101778.00;;;38.17;38.08
76694;BME280;69667;52.136;5.424;2023-07-09T08:53:32;101764.31;;;38.56;34.68
76694;BME280;69667;52.136;5.424;2023-07-09T08:56:00;101775.59;;;38.56;34.28
76694;BME280;69667;52.136;5.424;2023-07-09T08:58:29;101767.34;;;38.39;37.44
76694;BME280;69667;52.136;5.424;2023-07-09T09:00:59;101771.50;;;38.17;35.18
76694;BME280;69667;52.136;5.424;2023-07-09T09:03:34;101764.34;;;38.09;34.67
76694;BME280;69667;52.136;5.424;2023-07-09T09:06:38;101759.06;;;38.18;33.57
76694;BME280;69667;52.136;5.424;2023-07-09T09:12:20;101768.41;;;38.23;33.26
76694;BME280;69667;52.136;5.424;2023-07-09T09:15:01;101767.47;;;38.13;33.96
76694;BME280;69667;52.136;5.424;2023-07-09T09:17:32;101766.47;;;38.29;32.58
76694;BME280;69667;52.136;5.424;2023-07-09T09:20:05;101761.97;;;38.33;34.56
76694;BME280;69667;52.136;5.424;2023-07-09T09:25:21;101764.00;;;38.52;36.58
76694;BME280;69667;52.136;5.424;2023-07-09T09:27:49;101761.22;;;38.57;32.29
76694;BME280;69667;52.136;5.424;2023-07-09T09:30:19;101759.75;;;38.50;32.68
76694;BME280;69667;52.136;5.424;2023-07-09T09:32:50;101757.47;;;38.37;34.57
76694;BME280;69667;52.136;5.424;2023-07-09T09:35:29;101759.44;;;38.41;35.21
76694;BME280;69667;52.136;5.424;2023-07-09T09:37:58;101749.34;;;38.55;31.92
76694;BME280;69667;52.136;5.424;2023-07-09T09:40:28;101755.56;;;38.57;32.23
76694;BME280;69667;52.136;5.424;2023-07-09T09:42:56;101751.34;;;38.65;32.71
76694;BME280;69667;52.136;5.424;2023-07-09T09:45:32;101741.78;;;38.91;33.06
76694;BME280;69667;52.136;5.424;2023-07-09T09:48:01;101751.94;;;38.72;33.02
76694;BME280;69667;52.136;5.424;2023-07-09T09:50:32;101743.78;;;38.95;32.23
76694;BME280;69667;52.136;5.424;2023-07-09T09:52:59;101738.41;;;38.94;31.52
76694;BME280;69667;52.136;5.424;2023-07-09T09:55:31;101729.34;;;38.77;30.26
76694;BME280;69667;52.136;5.424;2023-07-09T09:57:59;101723.44;;;38.83;29.95
76694;BME280;69667;52.136;5.424;2023-07-09T10:00:27;101724.78;;;38.56;31.98
76694;BME280;69667;52.136;5.424;2023-07-09T10:02:59;101735.00;;;38.67;35.06
76694;BME280;69667;52.136;5.424;2023-07-09T10:05:38;101722.56;;;38.78;33.46
76694;BME280;69667;52.136;5.424;2023-07-09T10:08:09;101726.84;;;38.90;34.25
76694;BME280;69667;52.136;5.424;2023-07-09T10:10:39;101717.50;;;38.75;32.77
76694;BME280;69667;52.136;5.424;2023-07-09T10:13:34;101714.38;;;38.76;34.57
76694;BME280;69667;52.136;5.424;2023-07-09T10:16:13;101719.09;;;38.41;36.33
76694;BME280;69667;52.136;5.424;2023-07-09T10:18:59;101714.09;;;38.83;38.75
76694;BME280;69667;52.136;5.424;2023-07-09T10:21:40;101706.53;;;39.03;36.39
76694;BME280;69667;52.136;5.424;2023-07-09T10:26:58;101707.84;;;38.51;36.00
76694;BME280;69667;52.136;5.424;2023-07-09T10:29:56;101718.84;;;38.47;36.02
76694;BME280;69667;52.136;5.424;2023-07-09T10:32:49;101711.19;;;38.53;36.99
76694;BME280;69667;52.136;5.424;2023-07-09T10:35:38;101705.63;;;38.68;35.79
76694;BME280;69667;52.136;5.424;2023-07-09T10:38:22;101707.34;;;38.74;34.95
76694;BME280;69667;52.136;5.424;2023-07-09T10:40:56;101700.47;;;38.55;37.29
76694;BME280;69667;52.136;5.424;2023-07-09T10:43:47;101714.88;;;38.53;34.73
76694;BME280;69667;52.136;5.424;2023-07-09T10:46:18;101712.41;;;38.77;39.49
76694;BME280;69667;52.136;5.424;2023-07-09T10:48:51;101714.09;;;38.68;35.09
76694;BME280;69667;52.136;5.424;2023-07-09T10:51:27;101716.28;;;37.42;38.82
76694;BME280;69667;52.136;5.424;2023-07-09T10:54:28;101718.94;;;37.17;40.37
76694;BME280;69667;52.136;5.424;2023-07-09T10:56:51;101718.31;;;37.47;39.46
76694;BME280;69667;52.136;5.424;2023-07-09T10:59:22;101712.59;;;37.32;36.54
76694;BME280;69667;52.136;5.424;2023-07-09T11:02:12;101712.88;;;36.72;38.09
76694;BME280;69667;52.136;5.424;2023-07-09T11:04:50;101711.19;;;36.76;37.99
76694;BME280;69667;52.136;5.424;2023-07-09T11:07:25;101722.94;;;36.95;41.15
76694;BME280;69667;52.136;5.424;2023-07-09T11:09:54;101723.75;;;36.90;42.21
76694;BME280;69667;52.136;5.424;2023-07-09T11:12:35;101724.63;;;36.69;41.96
76694;BME280;69667;52.136;5.424;2023-07-09T11:15:15;101729.88;;;35.91;41.78
76694;BME280;69667;52.136;5.424;2023-07-09T11:17:45;101733.38;;;35.10;43.98
76694;BME280;69667;52.136;5.424;2023-07-09T11:20:19;101718.00;;;34.68;43.43
76694;BME280;69667;52.136;5.424;2023-07-09T11:22:53;101712.50;;;34.44;45.50
76694;BME280;69667;52.136;5.424;2023-07-09T11:25:31;101702.84;;;34.40;43.60
76694;BME280;69667;52.136;5.424;2023-07-09T11:28:06;101700.72;;;34.59;43.88
76694;BME280;69667;52.136;5.424;2023-07-09T11:30:45;101695.16;;;34.92;44.83
76694;BME280;69667;52.136;5.424;2023-07-09T11:33:25;101701.25;;;34.89;44.71
76694;BME280;69667;52.136;5.424;2023-07-09T11:36:06;101696.50;;;34.90;44.20
76694;BME280;69667;52.136;5.424;2023-07-09T11:38:46;101695.56;;;35.17;43.77
76694;BME280;69667;52.136;5.424;2023-07-09T11:41:43;101700.44;;;35.05;42.97
76694;BME280;69667;52.136;5.424;2023-07-09T11:49:27;101711.50;;;35.28;43.89
76694;BME280;69667;52.136;5.424;2023-07-09T11:52:04;101703.31;;;35.10;42.42
76694;BME280;69667;52.136;5.424;2023-07-09T11:54:36;101710.50;;;35.01;46.75
76694;BME280;69667;52.136;5.424;2023-07-09T11:57:10;101708.19;;;35.15;42.01
76694;BME280;69667;52.136;5.424;2023-07-09T11:59:44;101705.81;;;35.40;48.57
76694;BME280;69667;52.136;5.424;2023-07-09T12:02:19;101711.66;;;35.55;45.82
76694;BME280;69667;52.136;5.424;2023-07-09T12:04:48;101720.63;;;35.74;44.68
76694;BME280;69667;52.136;5.424;2023-07-09T12:07:17;101728.13;;;35.68;44.20
76694;BME280;69667;52.136;5.424;2023-07-09T12:09:51;101726.31;;;35.40;42.53
76694;BME280;69667;52.136;5.424;2023-07-09T12:12:23;101734.84;;;34.84;45.91
76694;BME280;69667;52.136;5.424;2023-07-09T12:14:51;101740.44;;;34.39;43.37
76694;BME280;69667;52.136;5.424;2023-07-09T12:17:18;101743.22;;;34.11;46.56
76694;BME280;69667;52.136;5.424;2023-07-09T12:19:45;101738.72;;;33.87;43.34
76694;BME280;69667;52.136;5.424;2023-07-09T12:22:19;101750.56;;;34.01;44.42
76694;BME280;69667;52.136;5.424;2023-07-09T12:24:48;101750.38;;;34.19;42.13
76694;BME280;69667;52.136;5.424;2023-07-09T12:27:27;101752.72;;;34.10;44.46
76694;BME280;69667;52.136;5.424;2023-07-09T12:30:16;101754.97;;;33.51;43.12
76694;BME280;69667;52.136;5.424;2023-07-09T12:32:47;101751.88;;;33.17;44.12
76694;BME280;69667;52.136;5.424;2023-07-09T12:35:16;101752.22;;;32.98;44.88
76694;BME280;69667;52.136;5.424;2023-07-09T12:37:45;101744.94;;;32.67;45.39
76694;BME280;69667;52.136;5.424;2023-07-09T12:40:15;101730.47;;;32.70;48.77
76694;BME280;69667;52.136;5.424;2023-07-09T12:42:43;101728.13;;;32.97;45.45
76694;BME280;69667;52.136;5.424;2023-07-09T12:45:20;101741.06;;;32.80;47.29
76694;BME280;69667;52.136;5.424;2023-07-09T12:47:49;101742.38;;;32.66;45.31
76694;BME280;69667;52.136;5.424;2023-07-09T12:50:27;101743.50;;;32.47;45.47
76694;BME280;69667;52.136;5.424;2023-07-09T12:53:00;101745.41;;;32.64;44.81
76694;BME280;69667;52.136;5.424;2023-07-09T12:55:28;101749.25;;;32.81;43.44
76694;BME280;69667;52.136;5.424;2023-07-09T12:57:59;101739.50;;;32.84;44.95
76694;BME280;69667;52.136;5.424;2023-07-09T13:00:30;101736.88;;;32.59;46.16
76694;BME280;69667;52.136;5.424;2023-07-09T13:02:58;101737.44;;;32.79;47.37
76694;BME280;69667;52.136;5.424;2023-07-09T13:05:26;101731.91;;;33.02;43.75
76694;BME280;69667;52.136;5.424;2023-07-09T13:08:01;101745.44;;;33.17;45.50
76694;BME280;69667;52.136;5.424;2023-07-09T13:10:34;101742.25;;;33.02;45.40
76694;BME280;69667;52.136;5.424;2023-07-09T13:13:05;101737.25;;;33.04;45.85
76694;BME280;69667;52.136;5.424;2023-07-09T13:15:39;101735.25;;;33.46;43.63
76694;BME280;69667;52.136;5.424;2023-07-09T13:18:10;101738.28;;;33.67;41.74
76694;BME280;69667;52.136;5.424;2023-07-09T13:20:40;101739.38;;;33.31;43.57
76694;BME280;69667;52.136;5.424;2023-07-09T13:23:14;101758.09;;;33.08;41.50
76694;BME280;69667;52.136;5.424;2023-07-09T13:25:41;101771.97;;;32.85;43.26